createdAt,value
2019-03-31T00:00:34.174Z,21.50
2019-03-31T00:01:34.133Z,21.40
2019-03-31T00:02:34.146Z,21.10
2019-03-31T00:03:34.114Z,20.60
2019-03-31T00:04:34.202Z,21.20
2019-03-31T00:05:37.136Z,20.50
2019-03-31T00:06:34.086Z,21.10
2019-03-31T00:07:34.115Z,22.10
2019-03-31T00:08:34.069Z,20.90
2019-03-31T00:09:34.236Z,21.90
2019-03-31T00:10:34.057Z,20.70
2019-03-31T00:11:34.031Z,20.70
2019-03-31T00:12:34.016Z,21.40
2019-03-31T00:13:34.021Z,20.90
2019-03-31T00:14:34.009Z,20.70
2019-03-31T00:15:33.988Z,21.30
2019-03-31T00:16:33.966Z,21.00
2019-03-31T00:17:33.959Z,20.90
2019-03-31T00:18:33.974Z,21.10
2019-03-31T00:19:33.937Z,22.00
2019-03-31T00:20:33.945Z,21.10
2019-03-31T00:21:33.931Z,20.10
2019-03-31T00:22:33.918Z,20.90
2019-03-31T00:23:33.894Z,21.20
2019-03-31T00:24:33.897Z,20.50
2019-03-31T00:25:34.008Z,20.70
2019-03-31T00:26:33.927Z,21.00
2019-03-31T00:27:33.854Z,20.90
2019-03-31T00:28:33.848Z,19.90
2019-03-31T00:29:33.849Z,20.30
2019-03-31T00:30:33.813Z,20.00
2019-03-31T00:31:33.806Z,18.90
2019-03-31T00:32:33.806Z,20.00
2019-03-31T00:33:33.807Z,21.10
2019-03-31T00:34:33.858Z,19.60
2019-03-31T00:35:33.785Z,19.30
2019-03-31T00:36:33.769Z,20.10
2019-03-31T00:37:33.748Z,20.30
2019-03-31T00:38:33.746Z,19.10
2019-03-31T00:39:33.724Z,18.90
2019-03-31T00:40:33.712Z,19.50
2019-03-31T00:41:33.722Z,18.70
2019-03-31T00:42:33.688Z,18.80
2019-03-31T00:43:33.683Z,20.00
2019-03-31T00:44:33.681Z,20.10
2019-03-31T00:45:33.668Z,19.40
2019-03-31T00:46:33.649Z,19.80
2019-03-31T00:47:33.636Z,19.30
2019-03-31T00:48:33.622Z,18.20
2019-03-31T00:49:33.650Z,19.60
2019-03-31T00:50:33.634Z,19.20
2019-03-31T00:51:33.591Z,18.20
2019-03-31T00:52:33.578Z,18.30
2019-03-31T00:53:33.577Z,19.40
2019-03-31T00:54:33.555Z,19.20
2019-03-31T00:55:33.533Z,19.90
2019-03-31T00:56:33.536Z,19.60
2019-03-31T00:57:33.531Z,18.80
2019-03-31T00:58:33.509Z,18.50
2019-03-31T00:59:33.496Z,18.10
2019-03-31T01:00:33.496Z,19.30
2019-03-31T01:01:36.874Z,18.90
2019-03-31T01:02:33.499Z,19.70
2019-03-31T01:03:33.458Z,18.90
2019-03-31T01:04:33.447Z,18.80
2019-03-31T01:05:33.430Z,19.50
2019-03-31T01:06:33.490Z,18.80
2019-03-31T01:07:33.407Z,19.90
2019-03-31T01:08:33.393Z,18.10
2019-03-31T01:09:33.389Z,19.10
2019-03-31T01:10:33.376Z,19.80
2019-03-31T01:11:33.380Z,19.20
2019-03-31T01:12:33.350Z,20.00
2019-03-31T01:13:33.350Z,19.50
2019-03-31T01:14:33.351Z,20.20
2019-03-31T01:15:33.323Z,19.30
2019-03-31T01:16:33.300Z,19.60
2019-03-31T01:17:33.306Z,19.10
2019-03-31T01:18:33.282Z,19.50
2019-03-31T01:19:33.274Z,20.90
2019-03-31T01:20:33.271Z,19.70
2019-03-31T01:21:33.252Z,19.80
2019-03-31T01:22:33.281Z,18.60
2019-03-31T01:23:33.235Z,19.60
2019-03-31T01:24:33.216Z,20.40
2019-03-31T01:25:33.205Z,20.60
2019-03-31T01:26:33.207Z,20.40
2019-03-31T01:27:33.199Z,19.60
2019-03-31T01:28:33.300Z,20.80
2019-03-31T01:29:33.180Z,19.90
2019-03-31T01:30:33.161Z,20.50
2019-03-31T01:31:33.189Z,20.70
2019-03-31T01:32:33.160Z,20.80
2019-03-31T01:33:33.127Z,20.80
2019-03-31T01:34:33.127Z,20.60
2019-03-31T01:35:33.111Z,19.70
2019-03-31T01:36:33.090Z,20.60
2019-03-31T01:37:33.091Z,21.20
2019-03-31T01:38:33.063Z,20.50
2019-03-31T01:39:33.089Z,20.40
2019-03-31T01:40:33.037Z,21.40
2019-03-31T01:41:33.021Z,20.30
2019-03-31T01:42:33.120Z,20.20
2019-03-31T01:43:33.029Z,20.30
2019-03-31T01:44:32.989Z,21.60
2019-03-31T01:45:33.047Z,21.10
2019-03-31T01:46:32.965Z,21.30
2019-03-31T01:47:32.966Z,21.20
2019-03-31T01:48:32.946Z,21.70
2019-03-31T01:49:32.948Z,22.70
2019-03-31T01:50:32.929Z,23.00
2019-03-31T01:51:32.920Z,22.20
2019-03-31T01:52:32.902Z,21.30
2019-03-31T01:53:32.896Z,22.10
2019-03-31T01:54:32.893Z,21.90
2019-03-31T01:55:32.891Z,21.30
2019-03-31T01:56:32.873Z,21.70
2019-03-31T01:57:32.864Z,21.30
2019-03-31T01:58:32.878Z,21.30
2019-03-31T01:59:32.838Z,21.30
2019-03-31T02:00:32.823Z,21.20
2019-03-31T02:01:32.805Z,22.00
2019-03-31T02:02:32.808Z,21.50
2019-03-31T02:03:32.776Z,22.10
2019-03-31T02:04:32.781Z,21.70
2019-03-31T02:05:32.845Z,21.10
2019-03-31T02:06:32.774Z,21.50
2019-03-31T02:07:32.748Z,22.00
2019-03-31T02:08:32.733Z,23.40
2019-03-31T02:09:32.712Z,22.70
2019-03-31T02:10:32.712Z,21.40
2019-03-31T02:11:32.700Z,22.30
2019-03-31T02:12:32.676Z,22.40
2019-03-31T02:13:32.708Z,22.40
2019-03-31T02:14:32.654Z,21.70
2019-03-31T02:15:32.674Z,22.50
2019-03-31T02:16:32.698Z,22.10
2019-03-31T02:17:32.640Z,21.70
2019-03-31T02:18:42.295Z,24.10
2019-03-31T02:20:14.793Z,24.90
2019-03-31T02:21:14.783Z,22.90
2019-03-31T02:22:14.777Z,22.80
2019-03-31T02:23:14.754Z,23.60
2019-03-31T02:24:14.729Z,23.70
2019-03-31T02:25:14.724Z,23.50
2019-03-31T02:26:14.713Z,23.00
2019-03-31T02:27:21.871Z,23.80
2019-03-31T02:28:56.375Z,23.10
2019-03-31T02:29:56.341Z,24.10
2019-03-31T02:31:38.583Z,24.40
2019-03-31T02:32:38.370Z,25.40
2019-03-31T02:34:19.823Z,24.60
2019-03-31T02:35:19.834Z,24.70
2019-03-31T02:37:01.988Z,25.20
2019-03-31T02:38:01.952Z,24.70
2019-03-31T02:39:01.927Z,25.20
2019-03-31T02:40:01.919Z,24.70
2019-03-31T02:41:01.902Z,23.30
2019-03-31T02:42:01.912Z,24.30
2019-03-31T02:43:01.886Z,25.80
2019-03-31T02:44:01.888Z,25.00
2019-03-31T02:45:01.914Z,24.90
2019-03-31T02:46:10.575Z,25.10
2019-03-31T02:47:45.468Z,24.40
2019-03-31T02:48:45.033Z,25.90
2019-03-31T02:49:45.010Z,25.90
2019-03-31T02:50:44.997Z,25.80
2019-03-31T02:51:44.987Z,25.00
2019-03-31T02:52:44.971Z,25.10
2019-03-31T02:53:44.971Z,26.30
2019-03-31T02:54:44.967Z,26.30
2019-03-31T02:55:44.979Z,25.50
2019-03-31T02:56:45.013Z,26.40
2019-03-31T02:57:44.947Z,26.20
2019-03-31T02:58:44.922Z,25.90
2019-03-31T02:59:44.919Z,26.60
2019-03-31T03:00:44.904Z,26.90
2019-03-31T03:01:44.878Z,27.40
2019-03-31T03:02:44.875Z,26.00
2019-03-31T03:03:44.864Z,27.30
2019-03-31T03:04:44.863Z,27.60
2019-03-31T03:05:44.853Z,26.50
2019-03-31T03:06:44.825Z,27.10
2019-03-31T03:07:44.831Z,26.80
2019-03-31T03:08:44.802Z,27.80
2019-03-31T03:09:44.846Z,25.80
2019-03-31T03:10:44.804Z,26.80
2019-03-31T03:11:44.866Z,26.30
2019-03-31T03:12:44.808Z,26.00
2019-03-31T03:13:44.770Z,27.40
2019-03-31T03:14:44.796Z,27.70
2019-03-31T03:15:44.720Z,26.80
2019-03-31T03:16:44.729Z,27.60
2019-03-31T03:17:44.705Z,28.20
2019-03-31T03:18:44.702Z,28.30
2019-03-31T03:19:44.681Z,28.10
2019-03-31T03:20:44.674Z,26.30
2019-03-31T03:21:44.670Z,28.10
2019-03-31T03:22:44.665Z,29.70
2019-03-31T03:23:44.638Z,27.40
2019-03-31T03:24:44.632Z,27.30
2019-03-31T03:25:55.630Z,27.60
2019-03-31T03:26:45.598Z,28.40
2019-03-31T03:27:44.598Z,29.10
2019-03-31T03:28:44.612Z,28.60
2019-03-31T03:29:44.572Z,28.90
2019-03-31T03:30:44.602Z,29.20
2019-03-31T03:31:44.565Z,31.10
2019-03-31T03:33:12.502Z,28.60
2019-03-31T03:33:45.526Z,29.60
2019-03-31T03:34:44.535Z,29.50
2019-03-31T03:35:44.520Z,27.70
2019-03-31T03:36:44.527Z,28.70
2019-03-31T03:37:44.521Z,27.90
2019-03-31T03:38:53.242Z,29.70
2019-03-31T03:40:26.669Z,29.50
2019-03-31T03:41:26.661Z,29.20
2019-03-31T03:42:26.643Z,28.30
2019-03-31T03:43:26.640Z,29.00
2019-03-31T03:44:26.618Z,28.40
2019-03-31T03:45:26.601Z,29.40
2019-03-31T03:46:26.602Z,28.40
2019-03-31T03:47:26.596Z,30.00
2019-03-31T03:48:26.584Z,29.80
2019-03-31T03:49:26.561Z,27.70
2019-03-31T03:50:26.547Z,29.50
2019-03-31T03:51:26.539Z,29.40
2019-03-31T03:52:26.539Z,28.60
2019-03-31T03:53:26.529Z,29.60
2019-03-31T03:54:26.568Z,29.80
2019-03-31T03:55:26.521Z,28.50
2019-03-31T03:56:29.069Z,28.10
2019-03-31T03:57:26.487Z,30.00
2019-03-31T03:58:26.468Z,30.00
2019-03-31T03:59:26.457Z,31.00
2019-03-31T04:00:26.442Z,28.90
2019-03-31T04:01:26.430Z,32.00
2019-03-31T04:02:26.431Z,30.30
2019-03-31T04:03:30.604Z,30.30
2019-03-31T04:04:26.438Z,32.00
2019-03-31T04:05:26.402Z,30.30
2019-03-31T04:06:26.382Z,30.90
2019-03-31T04:07:26.373Z,30.20
2019-03-31T04:08:26.388Z,31.70
2019-03-31T04:09:26.351Z,32.80
2019-03-31T04:10:26.344Z,30.10
2019-03-31T04:11:26.333Z,30.90
2019-03-31T04:12:26.331Z,31.10
2019-03-31T04:13:26.311Z,31.00
2019-03-31T04:14:26.297Z,31.50
2019-03-31T04:15:26.301Z,30.80
2019-03-31T04:16:26.295Z,31.30
2019-03-31T04:17:26.262Z,31.00
2019-03-31T04:18:26.257Z,31.50
2019-03-31T04:19:26.295Z,32.70
2019-03-31T04:20:26.229Z,31.10
2019-03-31T04:21:26.210Z,31.30
2019-03-31T04:22:26.210Z,29.80
2019-03-31T04:23:26.192Z,32.40
2019-03-31T04:24:26.188Z,31.20
2019-03-31T04:25:26.172Z,33.00
2019-03-31T04:26:26.175Z,32.40
2019-03-31T04:27:26.151Z,33.50
2019-03-31T04:28:26.155Z,31.70
2019-03-31T04:29:26.133Z,33.20
2019-03-31T04:30:26.122Z,32.30
2019-03-31T04:31:26.107Z,30.90
2019-03-31T04:32:26.150Z,32.70
2019-03-31T04:33:26.098Z,31.60
2019-03-31T04:34:26.191Z,31.20
2019-03-31T04:35:26.062Z,31.60
2019-03-31T04:36:26.058Z,31.60
2019-03-31T04:37:26.049Z,31.90
2019-03-31T04:38:26.059Z,31.20
2019-03-31T04:39:26.019Z,31.90
2019-03-31T04:40:26.023Z,32.60
2019-03-31T04:41:25.998Z,32.60
2019-03-31T04:42:26.010Z,31.10
2019-03-31T04:43:25.981Z,32.30
2019-03-31T04:44:25.986Z,32.80
2019-03-31T04:45:25.950Z,33.40
2019-03-31T04:46:25.936Z,33.60
2019-03-31T04:47:25.944Z,32.90
2019-03-31T04:48:25.918Z,34.10
2019-03-31T04:49:25.954Z,32.40
2019-03-31T04:50:25.891Z,32.10
2019-03-31T04:51:25.898Z,30.90
2019-03-31T04:52:25.878Z,34.00
2019-03-31T04:53:25.858Z,31.80
2019-03-31T04:54:25.852Z,32.90
2019-03-31T04:55:25.852Z,33.50
2019-03-31T04:56:25.834Z,33.50
2019-03-31T04:57:25.824Z,33.30
2019-03-31T04:58:25.814Z,32.50
2019-03-31T04:59:25.808Z,34.30
2019-03-31T05:00:25.787Z,34.90
2019-03-31T05:01:25.796Z,34.40
2019-03-31T05:02:27.388Z,34.60
2019-03-31T05:03:25.743Z,34.80
2019-03-31T05:04:25.816Z,35.00
2019-03-31T05:05:25.741Z,35.30
2019-03-31T05:06:25.724Z,36.00
2019-03-31T05:07:25.703Z,35.90
2019-03-31T05:08:25.688Z,35.80
2019-03-31T05:09:25.685Z,34.60
2019-03-31T05:10:25.680Z,36.00
2019-03-31T05:11:25.671Z,36.30
2019-03-31T05:12:25.649Z,35.60
2019-03-31T05:13:25.648Z,35.60
2019-03-31T05:14:25.634Z,36.90
2019-03-31T05:15:25.623Z,36.60
2019-03-31T05:16:25.605Z,36.70
2019-03-31T05:17:25.597Z,37.20
2019-03-31T05:18:25.581Z,37.20
2019-03-31T05:19:25.587Z,36.70
2019-03-31T05:20:25.556Z,35.50
2019-03-31T05:21:25.547Z,36.20
2019-03-31T05:22:25.542Z,36.70
2019-03-31T05:23:25.541Z,36.90
2019-03-31T05:24:25.517Z,38.50
2019-03-31T05:25:25.521Z,35.80
2019-03-31T05:26:25.499Z,36.20
2019-03-31T05:27:25.489Z,36.90
2019-03-31T05:28:25.497Z,36.70
2019-03-31T05:29:25.458Z,36.10
2019-03-31T05:30:25.464Z,36.90
2019-03-31T05:31:25.435Z,37.90
2019-03-31T05:32:25.442Z,38.40
2019-03-31T05:33:25.415Z,36.80
2019-03-31T05:34:25.430Z,37.00
2019-03-31T05:35:27.081Z,36.00
2019-03-31T05:36:25.378Z,38.10
2019-03-31T05:37:25.370Z,37.50
2019-03-31T05:38:25.364Z,37.60
2019-03-31T05:39:25.358Z,37.60
2019-03-31T05:40:25.344Z,37.60
2019-03-31T05:41:25.348Z,37.30
2019-03-31T05:42:25.324Z,37.50
2019-03-31T05:43:25.302Z,37.90
2019-03-31T05:44:25.324Z,37.40
2019-03-31T05:45:25.332Z,38.40
2019-03-31T05:46:25.288Z,37.00
2019-03-31T05:47:25.294Z,37.80
2019-03-31T05:48:25.250Z,36.30
2019-03-31T05:49:25.254Z,36.70
2019-03-31T05:50:25.233Z,36.70
2019-03-31T05:51:25.270Z,37.60
2019-03-31T05:52:25.224Z,37.00
2019-03-31T05:53:25.206Z,36.60
2019-03-31T05:54:25.198Z,36.50
2019-03-31T05:55:25.192Z,35.90
2019-03-31T05:56:25.168Z,35.60
2019-03-31T05:57:25.207Z,35.60
2019-03-31T05:58:25.144Z,34.80
2019-03-31T05:59:25.145Z,34.70
2019-03-31T06:00:25.137Z,32.30
2019-03-31T06:01:25.121Z,32.60
2019-03-31T06:02:25.103Z,33.20
2019-03-31T06:03:25.147Z,32.10
2019-03-31T06:04:33.103Z,32.90
2019-03-31T06:05:26.065Z,34.10
2019-03-31T06:06:25.067Z,32.60
2019-03-31T06:07:25.042Z,32.70
2019-03-31T06:08:25.047Z,32.70
2019-03-31T06:09:25.018Z,32.60
2019-03-31T06:10:25.015Z,32.40
2019-03-31T06:11:25.006Z,32.20
2019-03-31T06:12:25.006Z,31.50
2019-03-31T06:13:24.980Z,31.90
2019-03-31T06:14:24.964Z,30.80
2019-03-31T06:15:24.957Z,30.10
2019-03-31T06:16:24.974Z,30.50
2019-03-31T06:17:24.934Z,30.20
2019-03-31T06:18:24.920Z,30.50
2019-03-31T06:19:24.924Z,28.50
2019-03-31T06:20:24.894Z,30.10
2019-03-31T06:21:24.885Z,29.00
2019-03-31T06:22:24.870Z,29.50
2019-03-31T06:23:24.880Z,29.70
2019-03-31T06:24:24.969Z,30.90
2019-03-31T06:25:24.875Z,30.70
2019-03-31T06:26:24.835Z,32.80
2019-03-31T06:27:24.822Z,31.30
2019-03-31T06:28:24.808Z,31.30
2019-03-31T06:29:24.810Z,31.70
2019-03-31T06:30:24.854Z,32.40
2019-03-31T06:31:24.780Z,33.30
2019-03-31T06:32:24.770Z,30.20
2019-03-31T06:33:24.753Z,32.80
2019-03-31T06:34:24.742Z,33.40
2019-03-31T06:35:24.742Z,31.70
2019-03-31T06:36:24.738Z,31.60
2019-03-31T06:37:24.728Z,31.40
2019-03-31T06:38:24.703Z,29.30
2019-03-31T06:39:24.699Z,31.00
2019-03-31T06:40:24.691Z,31.20
2019-03-31T06:41:24.676Z,31.00
2019-03-31T06:42:24.671Z,32.00
2019-03-31T06:43:24.659Z,31.70
2019-03-31T06:44:24.637Z,34.60
2019-03-31T06:45:24.623Z,30.60
2019-03-31T06:46:24.619Z,32.00
2019-03-31T06:47:24.620Z,30.10
2019-03-31T06:48:24.604Z,29.90
2019-03-31T06:49:24.581Z,29.10
2019-03-31T06:50:24.562Z,29.50
2019-03-31T06:51:24.565Z,28.60
2019-03-31T06:52:24.547Z,27.90
2019-03-31T06:53:24.547Z,27.80
2019-03-31T06:54:24.537Z,27.00
2019-03-31T06:55:24.525Z,27.10
2019-03-31T06:56:24.493Z,25.90
2019-03-31T06:57:24.493Z,25.00
2019-03-31T06:58:24.513Z,25.90
2019-03-31T06:59:24.488Z,25.20
2019-03-31T07:00:24.476Z,26.30
2019-03-31T07:01:24.453Z,27.20
2019-03-31T07:02:24.434Z,24.40
2019-03-31T07:03:24.427Z,23.70
2019-03-31T07:04:24.449Z,24.50
2019-03-31T07:05:24.423Z,22.40
2019-03-31T07:06:24.396Z,24.00
2019-03-31T07:07:24.459Z,23.50
2019-03-31T07:08:24.377Z,21.20
2019-03-31T07:09:24.374Z,21.50
2019-03-31T07:10:24.399Z,22.10
2019-03-31T07:11:24.352Z,21.20
2019-03-31T07:12:24.337Z,21.10
2019-03-31T07:13:24.325Z,19.60
2019-03-31T07:14:24.306Z,17.40
2019-03-31T07:15:24.292Z,17.60
2019-03-31T07:16:24.292Z,17.80
2019-03-31T07:17:24.357Z,17.00
2019-03-31T07:18:24.293Z,16.70
2019-03-31T07:19:24.243Z,16.80
2019-03-31T07:20:24.237Z,16.00
2019-03-31T07:21:24.233Z,15.00
2019-03-31T07:22:24.521Z,14.60
2019-03-31T07:23:24.217Z,15.50
2019-03-31T07:24:24.191Z,15.60
2019-03-31T07:25:24.248Z,15.20
2019-03-31T07:26:24.166Z,15.40
2019-03-31T07:27:24.199Z,16.60
2019-03-31T07:28:24.167Z,15.40
2019-03-31T07:29:24.131Z,14.30
2019-03-31T07:30:24.159Z,15.10
2019-03-31T07:31:24.215Z,15.00
2019-03-31T07:32:24.099Z,14.60
2019-03-31T07:33:24.107Z,15.20
2019-03-31T07:34:24.107Z,14.30
2019-03-31T07:35:24.059Z,14.60
2019-03-31T07:36:24.051Z,14.50
2019-03-31T07:37:24.038Z,14.00
2019-03-31T07:38:38.058Z,14.70
2019-03-31T07:39:25.148Z,14.40
2019-03-31T07:40:24.199Z,14.90
2019-03-31T07:41:24.003Z,15.40
2019-03-31T07:42:24.150Z,15.90
2019-03-31T07:43:23.984Z,14.50
2019-03-31T07:44:23.975Z,14.50
2019-03-31T07:45:24.021Z,15.90
2019-03-31T07:46:23.938Z,14.40
2019-03-31T07:47:23.963Z,14.20
2019-03-31T07:48:23.930Z,13.10
2019-03-31T07:49:24.045Z,12.90
2019-03-31T07:50:23.934Z,13.90
2019-03-31T07:51:23.974Z,14.50
2019-03-31T07:52:23.872Z,14.60
2019-03-31T07:53:24.042Z,14.90
2019-03-31T07:54:24.057Z,15.00
2019-03-31T07:55:23.953Z,14.80
2019-03-31T07:56:23.862Z,15.90
2019-03-31T07:57:23.880Z,15.40
2019-03-31T07:58:23.810Z,15.10
2019-03-31T07:59:23.850Z,15.50
2019-03-31T08:00:23.806Z,15.70
2019-03-31T08:01:23.788Z,16.10
2019-03-31T08:02:23.779Z,15.20
2019-03-31T08:03:23.762Z,15.70
2019-03-31T08:04:23.748Z,16.00
2019-03-31T08:05:32.900Z,16.80
2019-03-31T08:06:24.745Z,16.80
2019-03-31T08:07:23.734Z,16.30
2019-03-31T08:08:23.700Z,16.30
2019-03-31T08:09:23.688Z,16.70
2019-03-31T08:10:23.680Z,16.50
2019-03-31T08:11:23.714Z,16.50
2019-03-31T08:12:23.670Z,16.70
2019-03-31T08:13:23.665Z,15.20
2019-03-31T08:14:23.639Z,16.50
2019-03-31T08:15:23.617Z,17.10
2019-03-31T08:16:23.606Z,16.80
2019-03-31T08:17:23.607Z,16.50
2019-03-31T08:18:23.597Z,16.50
2019-03-31T08:19:23.600Z,16.60
2019-03-31T08:20:23.645Z,15.60
2019-03-31T08:21:23.552Z,15.60
2019-03-31T08:22:23.561Z,13.90
2019-03-31T08:23:23.537Z,13.50
2019-03-31T08:24:23.539Z,13.00
2019-03-31T08:25:23.544Z,14.40
2019-03-31T08:26:23.499Z,13.40
2019-03-31T08:27:23.493Z,13.70
2019-03-31T08:28:23.502Z,12.30
2019-03-31T08:29:23.483Z,12.30
2019-03-31T08:30:23.480Z,11.60
2019-03-31T08:31:23.465Z,11.40
2019-03-31T08:32:23.429Z,12.20
2019-03-31T08:33:23.432Z,10.70
2019-03-31T08:34:23.410Z,12.00
2019-03-31T08:35:23.410Z,11.20
2019-03-31T08:36:23.396Z,11.40
2019-03-31T08:37:23.381Z,11.10
2019-03-31T08:38:24.523Z,10.30
2019-03-31T08:39:23.368Z,11.90
2019-03-31T08:40:23.362Z,11.10
2019-03-31T08:41:23.354Z,11.20
2019-03-31T08:42:23.377Z,11.80
2019-03-31T08:43:23.380Z,11.60
2019-03-31T08:44:23.322Z,12.00
2019-03-31T08:45:23.314Z,11.50
2019-03-31T08:46:23.288Z,11.40
2019-03-31T08:47:23.337Z,12.20
2019-03-31T08:48:23.272Z,11.90
2019-03-31T08:49:23.259Z,11.80
2019-03-31T08:50:23.241Z,11.50
2019-03-31T08:51:23.235Z,12.10
2019-03-31T08:52:23.233Z,11.90
2019-03-31T08:53:23.248Z,11.60
2019-03-31T08:54:23.356Z,12.60
2019-03-31T08:55:23.184Z,13.00
2019-03-31T08:56:23.181Z,11.90
2019-03-31T08:57:23.189Z,12.70
2019-03-31T08:58:23.157Z,13.50
2019-03-31T08:59:23.167Z,13.80
2019-03-31T09:00:23.131Z,12.90
2019-03-31T09:01:23.119Z,11.70
2019-03-31T09:02:23.184Z,12.50
2019-03-31T09:03:23.144Z,12.80
2019-03-31T09:04:23.107Z,12.50
2019-03-31T09:05:23.103Z,12.80
2019-03-31T09:06:23.071Z,12.80
2019-03-31T09:07:23.050Z,13.30
2019-03-31T09:08:23.053Z,13.30
2019-03-31T09:09:23.054Z,13.40
2019-03-31T09:10:23.080Z,13.70
2019-03-31T09:11:23.006Z,13.90
2019-03-31T09:12:23.003Z,13.20
2019-03-31T09:13:22.997Z,13.40
2019-03-31T09:14:22.994Z,13.50
2019-03-31T09:15:22.980Z,13.40
2019-03-31T09:16:23.016Z,13.50
2019-03-31T09:17:22.950Z,12.80
2019-03-31T09:18:22.934Z,13.50
2019-03-31T09:19:22.926Z,13.00
2019-03-31T09:20:22.920Z,12.90
2019-03-31T09:21:22.924Z,14.00
2019-03-31T09:22:22.918Z,13.20
2019-03-31T09:23:22.902Z,13.00
2019-03-31T09:24:22.884Z,11.70
2019-03-31T09:25:22.850Z,12.30
2019-03-31T09:26:22.853Z,12.70
2019-03-31T09:27:22.844Z,12.40
2019-03-31T09:28:22.853Z,12.60
2019-03-31T09:29:22.814Z,12.20
2019-03-31T09:30:22.800Z,12.40
2019-03-31T09:31:22.792Z,11.90
2019-03-31T09:32:22.791Z,12.90
2019-03-31T09:33:22.790Z,12.80
2019-03-31T09:34:22.762Z,12.70
2019-03-31T09:35:22.751Z,12.10
2019-03-31T09:36:22.739Z,11.70
2019-03-31T09:37:22.732Z,12.30
2019-03-31T09:38:22.754Z,12.50
2019-03-31T09:39:22.806Z,13.10
2019-03-31T09:40:22.695Z,12.90
2019-03-31T09:41:22.687Z,13.50
2019-03-31T09:42:22.680Z,14.00
2019-03-31T09:43:22.679Z,14.40
2019-03-31T09:44:22.665Z,15.60
2019-03-31T09:45:22.634Z,14.60
2019-03-31T09:46:22.649Z,13.60
2019-03-31T09:47:22.680Z,14.60
2019-03-31T09:48:22.605Z,13.70
2019-03-31T09:49:22.611Z,13.30
2019-03-31T09:50:22.614Z,14.10
2019-03-31T09:51:22.611Z,13.50
2019-03-31T09:52:22.634Z,12.70
2019-03-31T09:53:22.564Z,12.80
2019-03-31T09:54:22.551Z,12.00
2019-03-31T09:55:23.249Z,13.60
2019-03-31T09:56:22.553Z,12.10
2019-03-31T09:57:31.160Z,11.90
2019-03-31T09:59:04.637Z,11.80
2019-03-31T10:00:04.618Z,12.10
2019-03-31T10:01:07.887Z,10.80
2019-03-31T10:02:04.600Z,10.40
2019-03-31T10:03:04.584Z,10.00
2019-03-31T10:04:04.575Z,9.60
2019-03-31T10:05:04.563Z,9.80
2019-03-31T10:06:10.931Z,10.00
2019-03-31T10:07:05.542Z,10.80
2019-03-31T10:08:04.533Z,10.80
2019-03-31T10:09:04.516Z,11.10
2019-03-31T10:10:04.525Z,10.40
2019-03-31T10:11:04.493Z,10.70
2019-03-31T10:12:04.480Z,10.10
2019-03-31T10:13:04.486Z,10.80
2019-03-31T10:14:04.478Z,10.20
2019-03-31T10:15:04.451Z,10.10
2019-03-31T10:16:04.436Z,10.50
2019-03-31T10:17:04.423Z,9.80
2019-03-31T10:18:04.424Z,10.10
2019-03-31T10:19:04.411Z,10.50
2019-03-31T10:20:04.427Z,9.80
2019-03-31T10:21:04.488Z,10.80
2019-03-31T10:22:04.364Z,9.80
2019-03-31T10:23:04.364Z,9.90
2019-03-31T10:24:04.348Z,9.70
2019-03-31T10:25:04.357Z,9.60
2019-03-31T10:26:04.349Z,9.90
2019-03-31T10:27:04.310Z,9.80
2019-03-31T10:28:04.319Z,9.60
2019-03-31T10:29:04.288Z,9.90
2019-03-31T10:30:04.279Z,9.80
2019-03-31T10:31:04.267Z,9.20
2019-03-31T10:32:04.253Z,8.80
2019-03-31T10:33:04.247Z,8.30
2019-03-31T10:34:04.236Z,8.50
2019-03-31T10:35:04.220Z,8.90
2019-03-31T10:36:04.232Z,8.00
2019-03-31T10:37:04.218Z,8.70
2019-03-31T10:38:04.188Z,8.30
2019-03-31T10:39:04.185Z,8.50
2019-03-31T10:40:04.168Z,8.70
2019-03-31T10:41:04.168Z,8.40
2019-03-31T10:42:04.145Z,8.40
2019-03-31T10:43:04.134Z,8.50
2019-03-31T10:44:04.128Z,9.00
2019-03-31T10:45:04.113Z,8.60
2019-03-31T10:46:04.102Z,9.00
2019-03-31T10:47:04.097Z,8.80
2019-03-31T10:48:04.084Z,8.70
2019-03-31T10:49:04.067Z,8.50
2019-03-31T10:50:04.066Z,8.60
2019-03-31T10:51:04.049Z,7.60
2019-03-31T10:52:04.042Z,8.20
2019-03-31T10:53:04.036Z,7.30
2019-03-31T10:54:04.740Z,7.50
2019-03-31T10:55:04.008Z,7.60
2019-03-31T10:56:03.997Z,7.90
2019-03-31T10:57:04.073Z,6.60
2019-03-31T10:58:04.000Z,7.40
2019-03-31T10:59:03.960Z,7.70
2019-03-31T11:00:03.951Z,7.60
2019-03-31T11:01:03.956Z,7.30
2019-03-31T11:02:03.931Z,7.60
2019-03-31T11:03:03.913Z,7.70
2019-03-31T11:04:03.909Z,7.20
2019-03-31T11:05:03.897Z,6.80
2019-03-31T11:06:03.877Z,7.10
2019-03-31T11:07:03.937Z,7.30
2019-03-31T11:08:03.871Z,6.90
2019-03-31T11:09:03.856Z,7.50
2019-03-31T11:10:03.830Z,6.80
2019-03-31T11:11:03.839Z,6.00
2019-03-31T11:12:03.823Z,6.40
2019-03-31T11:13:03.821Z,5.90
2019-03-31T11:14:03.808Z,5.20
2019-03-31T11:15:03.784Z,5.80
2019-03-31T11:16:03.765Z,5.70
2019-03-31T11:17:03.755Z,7.20
2019-03-31T11:18:03.757Z,6.90
2019-03-31T11:19:03.747Z,6.90
2019-03-31T11:20:03.718Z,6.80
2019-03-31T11:21:03.707Z,6.80
2019-03-31T11:22:03.698Z,6.90
2019-03-31T11:23:03.691Z,5.70
2019-03-31T11:24:03.681Z,6.30
2019-03-31T11:25:03.670Z,5.40
2019-03-31T11:26:03.662Z,5.40
2019-03-31T11:27:03.652Z,6.10
2019-03-31T11:28:03.629Z,6.50
2019-03-31T11:29:03.621Z,6.00
2019-03-31T11:30:03.605Z,5.90
2019-03-31T11:31:03.618Z,5.90
2019-03-31T11:32:03.593Z,5.80
2019-03-31T11:33:07.176Z,5.60
2019-03-31T11:34:03.577Z,6.40
2019-03-31T11:35:03.556Z,7.30
2019-03-31T11:36:03.547Z,7.80
2019-03-31T11:37:13.312Z,7.40
2019-03-31T11:38:04.519Z,8.00
2019-03-31T11:39:03.508Z,8.30
2019-03-31T11:40:03.488Z,7.60
2019-03-31T11:41:03.494Z,8.00
2019-03-31T11:42:03.477Z,7.90
2019-03-31T11:43:03.466Z,7.00
2019-03-31T11:44:03.445Z,7.60
2019-03-31T11:45:03.446Z,7.80
2019-03-31T11:46:03.430Z,8.00
2019-03-31T11:47:03.434Z,7.20
2019-03-31T11:48:03.418Z,7.00
2019-03-31T11:49:03.399Z,7.40
2019-03-31T11:50:03.386Z,7.40
2019-03-31T11:51:03.373Z,7.20
2019-03-31T11:52:03.364Z,6.20
2019-03-31T11:53:03.354Z,6.30
2019-03-31T11:54:03.344Z,5.90
2019-03-31T11:55:03.323Z,5.90
2019-03-31T11:56:03.405Z,6.50
2019-03-31T11:57:03.387Z,6.10
2019-03-31T11:58:03.304Z,6.00
2019-03-31T11:59:03.285Z,6.00
2019-03-31T12:00:03.282Z,6.50
2019-03-31T12:01:03.307Z,6.10
2019-03-31T12:02:03.249Z,6.90
2019-03-31T12:03:03.239Z,6.40
2019-03-31T12:04:03.223Z,5.80
2019-03-31T12:05:06.185Z,5.50
2019-03-31T12:06:03.205Z,6.00
2019-03-31T12:07:03.211Z,6.40
2019-03-31T12:08:03.195Z,5.80
2019-03-31T12:09:03.187Z,5.30
2019-03-31T12:10:03.167Z,5.40
2019-03-31T12:11:03.160Z,6.30
2019-03-31T12:12:03.181Z,5.30
2019-03-31T12:13:03.135Z,4.20
2019-03-31T12:14:03.117Z,4.00
2019-03-31T12:15:03.114Z,3.70
2019-03-31T12:16:03.101Z,3.70
2019-03-31T12:17:03.088Z,3.40
2019-03-31T12:18:03.081Z,2.90
2019-03-31T12:19:03.086Z,2.90
2019-03-31T12:20:03.063Z,3.20
2019-03-31T12:21:03.195Z,2.80
2019-03-31T12:22:03.122Z,2.60
2019-03-31T12:23:03.061Z,2.80
2019-03-31T12:24:03.034Z,2.70
2019-03-31T12:25:03.100Z,3.20
2019-03-31T12:26:03.322Z,2.80
2019-03-31T12:27:03.154Z,2.90
2019-03-31T12:28:03.097Z,2.10
2019-03-31T12:29:03.117Z,2.70
2019-03-31T12:30:02.956Z,2.60
2019-03-31T12:31:02.939Z,2.70
2019-03-31T12:32:02.922Z,2.60
2019-03-31T12:33:02.907Z,2.30
2019-03-31T12:34:02.910Z,2.20
2019-03-31T12:35:02.890Z,2.10
2019-03-31T12:36:02.884Z,2.30
2019-03-31T12:37:02.886Z,1.90
2019-03-31T12:38:02.855Z,1.80
2019-03-31T12:39:02.850Z,2.20
2019-03-31T12:40:02.835Z,1.90
2019-03-31T12:41:02.810Z,2.00
2019-03-31T12:42:02.814Z,2.10
2019-03-31T12:43:02.793Z,2.10
2019-03-31T12:44:02.784Z,2.00
2019-03-31T12:45:02.779Z,2.00
2019-03-31T12:46:02.762Z,1.50
2019-03-31T12:47:02.767Z,2.10
2019-03-31T12:48:02.746Z,1.90
2019-03-31T12:49:02.758Z,2.60
2019-03-31T12:50:02.717Z,2.20
2019-03-31T12:51:02.711Z,1.80
2019-03-31T12:52:02.701Z,1.90
2019-03-31T12:53:02.683Z,1.70
2019-03-31T12:54:02.677Z,1.80
2019-03-31T12:55:02.663Z,1.90
2019-03-31T12:56:02.659Z,1.30
2019-03-31T12:57:02.636Z,1.80
2019-03-31T12:58:02.632Z,1.80
2019-03-31T12:59:02.614Z,1.80
2019-03-31T13:00:02.619Z,1.60
2019-03-31T13:01:02.599Z,1.40
2019-03-31T13:02:02.593Z,1.60
2019-03-31T13:03:02.568Z,1.50
2019-03-31T13:04:02.578Z,1.10